createdAt,value
2023-04-20T00:03:57.206Z,42.25
2023-04-20T00:08:59.800Z,42.14
2023-04-20T00:14:02.281Z,42.09
2023-04-20T00:19:04.690Z,42.45
2023-04-20T00:24:07.692Z,42.50
2023-04-20T00:29:10.180Z,42.79
2023-04-20T00:34:12.691Z,43.14
2023-04-20T00:39:16.028Z,43.00
2023-04-20T00:44:18.563Z,42.89
2023-04-20T00:49:21.066Z,42.35
2023-04-20T00:54:23.964Z,42.15
2023-04-20T00:59:26.501Z,42.04
2023-04-20T01:04:29.647Z,42.11
2023-04-20T01:09:34.095Z,41.42
2023-04-20T01:14:36.457Z,41.97
2023-04-20T01:19:38.855Z,41.38
2023-04-20T01:24:41.298Z,40.54
2023-04-20T01:29:44.557Z,40.08
2023-04-20T01:34:47.063Z,39.90
2023-04-20T01:39:51.130Z,40.01
2023-04-20T01:44:56.727Z,40.61
2023-04-20T01:49:59.143Z,40.67
2023-04-20T01:55:01.663Z,40.16
2023-04-20T02:00:07.045Z,40.65
2023-04-20T02:05:17.008Z,41.10
2023-04-20T02:10:19.525Z,41.72
2023-04-20T02:15:23.049Z,41.97
2023-04-20T02:20:25.600Z,41.92
2023-04-20T02:25:28.117Z,42.22
2023-04-20T02:30:30.472Z,41.77
2023-04-20T02:35:32.952Z,41.93
2023-04-20T02:40:35.324Z,40.76
2023-04-20T02:45:38.363Z,40.39
2023-04-20T02:50:43.133Z,40.00
2023-04-20T02:55:55.272Z,38.42
2023-04-20T03:01:14.843Z,37.52
2023-04-20T03:06:18.119Z,36.69
2023-04-20T03:11:29.001Z,36.31
2023-04-20T03:16:32.819Z,35.21
2023-04-20T03:21:35.912Z,35.60
2023-04-20T03:26:38.411Z,35.50
2023-04-20T03:31:56.402Z,35.65
2023-04-20T03:36:59.326Z,35.40
2023-04-20T03:42:02.084Z,35.78
2023-04-20T03:47:04.673Z,36.64
2023-04-20T03:52:07.978Z,36.70
2023-04-20T03:57:10.484Z,36.73
2023-04-20T04:02:13.769Z,36.09
2023-04-20T04:07:18.968Z,36.80
2023-04-20T04:12:21.449Z,36.81
2023-04-20T04:17:25.515Z,35.70
2023-04-20T04:22:30.451Z,34.85
2023-04-20T04:27:58.987Z,33.82
2023-04-20T04:33:05.215Z,33.58
2023-04-20T04:38:14.296Z,34.03
2023-04-20T04:43:20.895Z,33.36
2023-04-20T04:48:37.051Z,33.25
2023-04-20T04:53:45.231Z,33.39
2023-04-20T04:58:47.901Z,33.24
2023-04-20T05:03:50.482Z,32.49
2023-04-20T05:08:53.106Z,33.12
2023-04-20T05:13:55.548Z,32.75
2023-04-20T05:18:58.043Z,32.28
2023-04-20T05:24:00.590Z,31.31
2023-04-20T05:29:03.008Z,31.37
2023-04-20T05:34:05.617Z,31.26
2023-04-20T05:39:08.109Z,29.36
2023-04-20T05:44:10.503Z,28.85
2023-04-20T05:49:12.992Z,28.92
2023-04-20T05:54:15.478Z,29.11
2023-04-20T05:59:18.128Z,29.36
2023-04-20T06:04:21.154Z,29.05
2023-04-20T06:09:23.804Z,29.02
2023-04-20T06:14:26.379Z,28.99
2023-04-20T06:19:28.868Z,28.59
2023-04-20T06:24:31.254Z,28.33
2023-04-20T06:29:33.644Z,28.20
2023-04-20T06:34:36.188Z,27.72
2023-04-20T06:39:38.509Z,28.19
2023-04-20T06:44:41.397Z,28.23
2023-04-20T06:49:43.837Z,28.12
2023-04-20T06:54:46.462Z,28.25
2023-04-20T06:59:49.059Z,28.34
2023-04-20T07:04:51.642Z,29.76
2023-04-20T07:09:54.160Z,29.98
2023-04-20T07:14:56.978Z,28.39
2023-04-20T07:20:06.296Z,26.24
2023-04-20T07:25:10.823Z,25.05
2023-04-20T07:30:13.696Z,24.29
2023-04-20T07:35:16.187Z,23.95
2023-04-20T07:40:18.618Z,23.48
2023-04-20T07:45:23.212Z,23.61
2023-04-20T07:50:25.944Z,23.47
2023-04-20T07:55:28.553Z,23.42
2023-04-20T08:00:31.038Z,22.15
2023-04-20T08:05:33.753Z,20.92
2023-04-20T08:10:36.512Z,19.80
2023-04-20T08:15:38.974Z,19.75
2023-04-20T08:20:41.579Z,19.69
2023-04-20T08:25:44.009Z,18.54
2023-04-20T08:30:47.173Z,18.44
2023-04-20T08:35:52.123Z,19.28
2023-04-20T08:40:54.564Z,19.21
2023-04-20T08:46:03.088Z,19.81
2023-04-20T08:51:06.401Z,20.12
2023-04-20T08:56:08.900Z,19.90
2023-04-20T09:01:15.460Z,20.05
2023-04-20T09:06:21.543Z,20.64
2023-04-20T09:11:27.574Z,20.59
2023-04-20T09:16:30.038Z,21.34
2023-04-20T09:21:33.025Z,20.89
2023-04-20T09:26:36.569Z,20.99
2023-04-20T09:31:39.147Z,21.00
2023-04-20T09:36:54.505Z,21.08
2023-04-20T09:42:05.743Z,20.42
2023-04-20T09:47:09.006Z,20.73
2023-04-20T09:52:19.690Z,20.95
2023-04-20T09:57:22.540Z,21.23
2023-04-20T10:02:25.224Z,21.29
2023-04-20T10:07:29.976Z,21.17
2023-04-20T10:12:32.880Z,20.77
2023-04-20T10:17:35.371Z,21.10
2023-04-20T10:22:39.411Z,20.92
2023-04-20T10:27:53.317Z,21.02
2023-04-20T10:33:04.796Z,20.37
2023-04-20T10:38:07.822Z,20.53
2023-04-20T10:43:21.678Z,20.17
2023-04-20T10:48:24.110Z,20.24
2023-04-20T10:53:26.522Z,19.91
2023-04-20T10:58:29.012Z,20.69
2023-04-20T11:03:34.863Z,20.04
2023-04-20T11:08:39.588Z,20.13
2023-04-20T11:13:41.947Z,20.03
2023-04-20T11:19:03.973Z,20.08
2023-04-20T11:24:19.187Z,20.00
2023-04-20T11:29:40.081Z,19.71
2023-04-20T11:34:43.488Z,18.48
2023-04-20T11:39:47.158Z,19.15
2023-04-20T11:44:49.545Z,19.46
2023-04-20T11:49:52.004Z,18.70
2023-04-20T11:54:54.426Z,18.46
2023-04-20T11:59:56.932Z,17.85
2023-04-20T12:05:02.515Z,18.13
2023-04-20T12:10:08.470Z,18.54
2023-04-20T12:15:11.109Z,18.11
2023-04-20T12:20:14.020Z,18.60
2023-04-20T12:25:16.411Z,18.71
2023-04-20T12:30:18.818Z,19.52
2023-04-20T12:35:21.460Z,18.40
2023-04-20T12:40:24.234Z,18.15
2023-04-20T12:45:26.627Z,18.80
2023-04-20T12:50:29.033Z,18.84
2023-04-20T12:55:31.468Z,18.35
2023-04-20T13:00:33.996Z,19.19
2023-04-20T13:05:36.508Z,19.20
2023-04-20T13:10:42.989Z,19.48
2023-04-20T13:15:45.416Z,19.62
2023-04-20T13:20:47.835Z,20.09
2023-04-20T13:25:50.541Z,20.54
2023-04-20T13:30:55.782Z,20.60
2023-04-20T13:35:58.514Z,21.15
2023-04-20T13:41:01.032Z,20.70
2023-04-20T13:46:03.762Z,20.70
2023-04-20T13:51:06.444Z,21.24
2023-04-20T13:56:08.885Z,21.62
2023-04-20T14:01:17.809Z,21.58
2023-04-20T14:06:20.674Z,21.63
2023-04-20T14:11:23.208Z,22.05
2023-04-20T14:16:26.370Z,22.50
2023-04-20T14:21:29.189Z,22.70
2023-04-20T14:26:31.534Z,22.91
2023-04-20T14:31:35.095Z,22.48
2023-04-20T14:36:37.607Z,22.93
2023-04-20T14:41:40.041Z,23.46
2023-04-20T14:46:42.705Z,23.66
2023-04-20T14:51:45.403Z,23.85
2023-04-20T14:56:47.809Z,24.75
2023-04-20T15:02:01.759Z,25.13
2023-04-20T15:07:04.935Z,25.56
2023-04-20T15:12:07.622Z,25.91
2023-04-20T15:17:10.118Z,26.51
2023-04-20T15:22:13.712Z,26.94
2023-04-20T15:27:17.457Z,26.92
2023-04-20T15:32:20.045Z,27.14
2023-04-20T15:37:23.792Z,27.64
2023-04-20T15:42:27.558Z,28.03
2023-04-20T15:47:30.019Z,28.34
2023-04-20T15:52:32.865Z,28.62
2023-04-20T15:57:35.280Z,28.87
2023-04-20T16:02:40.246Z,29.74
2023-04-20T16:07:42.791Z,29.80
2023-04-20T16:12:45.168Z,30.29
2023-04-20T16:17:47.684Z,32.63
2023-04-20T16:22:50.058Z,33.37
2023-04-20T16:27:52.518Z,34.07
2023-04-20T16:32:55.056Z,34.91
2023-04-20T16:37:57.926Z,35.87
2023-04-20T16:43:02.066Z,36.43
2023-04-20T16:48:04.633Z,36.83
2023-04-20T16:53:10.517Z,37.83
2023-04-20T16:58:13.013Z,37.94
2023-04-20T17:03:15.978Z,39.35
2023-04-20T17:08:19.201Z,39.71
2023-04-20T17:13:21.528Z,40.21
2023-04-20T17:18:23.985Z,40.42
2023-04-20T17:23:26.660Z,40.27
2023-04-20T17:28:29.068Z,40.04
2023-04-20T17:33:31.463Z,38.72
2023-04-20T17:38:38.606Z,38.17
2023-04-20T17:43:41.295Z,37.06
2023-04-20T17:48:43.664Z,37.08
2023-04-20T17:53:46.040Z,37.31
2023-04-20T17:58:49.266Z,37.65
2023-04-20T18:03:52.155Z,38.34
2023-04-20T18:08:56.620Z,39.20
2023-04-20T18:13:59.017Z,38.61
2023-04-20T18:19:01.587Z,39.37
2023-04-20T18:24:04.927Z,39.01
2023-04-20T18:29:07.372Z,38.45
2023-04-20T18:34:11.861Z,38.92
2023-04-20T18:39:15.095Z,38.93
2023-04-20T18:44:17.973Z,38.94
2023-04-20T18:49:20.567Z,38.25
2023-04-20T18:54:23.085Z,39.00
2023-04-20T18:59:25.575Z,38.48
2023-04-20T19:04:28.205Z,39.01
2023-04-20T19:09:30.545Z,39.10
2023-04-20T19:14:32.866Z,39.18
2023-04-20T19:19:35.344Z,39.64
2023-04-20T19:24:37.788Z,39.54
2023-04-20T19:29:40.358Z,39.14
2023-04-20T19:34:42.770Z,39.55
2023-04-20T19:39:45.143Z,39.57
2023-04-20T19:44:47.478Z,40.01
2023-04-20T19:49:49.884Z,40.89
2023-04-20T19:54:52.292Z,40.70
2023-04-20T19:59:54.668Z,39.95
2023-04-20T20:04:57.067Z,39.95
2023-04-20T20:09:59.703Z,40.39
2023-04-20T20:15:03.818Z,40.50
2023-04-20T20:20:09.540Z,40.57
2023-04-20T20:25:11.927Z,41.06
2023-04-20T20:30:15.318Z,40.55
2023-04-20T20:35:17.846Z,40.90
2023-04-20T20:40:20.281Z,40.94
2023-04-20T20:45:23.611Z,41.30
2023-04-20T20:50:28.065Z,40.57
2023-04-20T20:55:30.646Z,41.04
2023-04-20T21:00:33.743Z,40.98
2023-04-20T21:05:36.293Z,41.25
2023-04-20T21:10:38.843Z,41.34
2023-04-20T21:15:41.194Z,41.33
2023-04-20T21:20:43.583Z,40.54
2023-04-20T21:25:46.301Z,41.42
2023-04-20T21:30:48.698Z,40.52
2023-04-20T21:35:51.288Z,41.51
2023-04-20T21:40:53.713Z,42.65
2023-04-20T21:45:56.171Z,43.34
2023-04-20T21:50:58.497Z,43.41
2023-04-20T21:56:00.832Z,43.87
2023-04-20T22:01:03.420Z,43.90
2023-04-20T22:06:06.771Z,44.52
2023-04-20T22:11:09.361Z,43.85
2023-04-20T22:16:11.735Z,43.82
2023-04-20T22:21:14.100Z,44.37
2023-04-20T22:26:17.097Z,44.02
2023-04-20T22:31:19.481Z,43.25
2023-04-20T22:36:21.876Z,43.35
2023-04-20T22:41:24.188Z,43.06
2023-04-20T22:46:26.721Z,42.86
2023-04-20T22:51:29.327Z,42.44
2023-04-20T22:56:32.425Z,41.78
2023-04-20T23:01:34.932Z,42.55
2023-04-20T23:06:38.361Z,41.52
2023-04-20T23:11:41.162Z,41.14
2023-04-20T23:16:44.052Z,41.70
2023-04-20T23:21:46.583Z,41.36
2023-04-20T23:26:48.959Z,41.19
2023-04-20T23:31:51.343Z,41.24
2023-04-20T23:36:54.340Z,41.04
2023-04-20T23:41:58.210Z,41.62
2023-04-20T23:47:00.560Z,41.73
2023-04-20T23:52:03.026Z,41.50
2023-04-20T23:57:05.389Z,41.78
